Terminal Aerodrome Forecast
Issued by NWS

Home | Current Version | Previous Version | Graphics & Text | Print | Product List | Glossary On
Versions: 1 2 3 4 5 6 7 8 9 10 11 12 13 14 15 16 17 18 19 20 21 22 23
000
FTUS42 KMHX 020900 AAB
TAFOAJ
TAF AMD
KOAJ 020900Z 0209/0306 VRB02KT 3SM BR BKN003
      TEMPO 0209/0211 1/2SM FG
     FM021700 14005KT P6SM FEW060
     FM030000 17005KT P6SM SKC
      AMD LTD TO CLD VIS AND WIND=

USA.gov is the U.S. government's official web portal to all federal, state and local government web resources and services.